createdAt,value
2023-03-06T00:00:22.960Z,99793.00
2023-03-06T00:03:46.669Z,99779.28
2023-03-06T00:06:49.453Z,99787.91
2023-03-06T00:09:51.881Z,99781.88
2023-03-06T00:12:57.002Z,99788.78
2023-03-06T00:16:01.235Z,99789.63
2023-03-06T00:19:04.010Z,99786.06
2023-03-06T00:22:06.415Z,99779.88
2023-03-06T00:25:13.934Z,99785.78
2023-03-06T00:28:17.526Z,99788.19
2023-03-06T00:31:20.478Z,99793.34
2023-03-06T00:34:23.037Z,99790.34
2023-03-06T00:37:26.404Z,99786.53
2023-03-06T00:40:28.945Z,99778.53
2023-03-06T00:43:31.809Z,99782.09
2023-03-06T00:46:35.490Z,99783.72
2023-03-06T00:49:38.396Z,99784.84
2023-03-06T00:52:42.250Z,99781.41
2023-03-06T00:55:45.910Z,99780.25
2023-03-06T00:58:48.367Z,99773.66
2023-03-06T01:01:51.272Z,99780.81
2023-03-06T01:04:53.811Z,99778.34
2023-03-06T01:07:56.575Z,99786.81
2023-03-06T01:10:59.115Z,99774.13
2023-03-06T01:14:01.925Z,99784.09
2023-03-06T01:17:04.778Z,99785.63
2023-03-06T01:20:08.153Z,99779.66
2023-03-06T01:23:10.562Z,99786.16
2023-03-06T01:26:14.110Z,99776.63
2023-03-06T01:29:16.607Z,99783.72
2023-03-06T01:32:19.467Z,99780.56
2023-03-06T01:35:22.006Z,99766.47
2023-03-06T01:38:24.975Z,99773.66
2023-03-06T01:41:27.711Z,99775.31
2023-03-06T01:44:30.612Z,99765.13
2023-03-06T01:47:33.238Z,99766.09
2023-03-06T01:50:36.195Z,99761.97
2023-03-06T01:53:40.545Z,99770.59
2023-03-06T01:56:45.613Z,99771.63
2023-03-06T01:59:53.209Z,99763.28
2023-03-06T02:03:17.952Z,99765.53
2023-03-06T02:06:22.064Z,99752.78
2023-03-06T02:09:30.073Z,99762.47
2023-03-06T02:12:32.582Z,99760.81
2023-03-06T02:15:35.354Z,99759.25
2023-03-06T02:18:38.567Z,99757.47
2023-03-06T02:21:41.406Z,99760.91
2023-03-06T02:25:05.389Z,99752.84
2023-03-06T02:28:12.702Z,99764.25
2023-03-06T02:31:25.966Z,99760.81
2023-03-06T02:34:28.708Z,99765.81
2023-03-06T02:37:31.266Z,99765.41
2023-03-06T02:40:36.949Z,99747.91
2023-03-06T02:43:40.497Z,99763.78
2023-03-06T02:46:43.268Z,99761.59
2023-03-06T02:49:45.932Z,99759.00
2023-03-06T02:52:48.909Z,99746.56
2023-03-06T02:55:51.612Z,99752.59
2023-03-06T02:58:54.455Z,99753.47
2023-03-06T03:01:56.931Z,99751.91
2023-03-06T03:05:00.288Z,99754.06
2023-03-06T03:08:02.929Z,99759.34
2023-03-06T03:11:05.937Z,99754.69
2023-03-06T03:14:18.105Z,99750.53
2023-03-06T03:17:23.431Z,99754.59
2023-03-06T03:20:25.969Z,99746.44
2023-03-06T03:23:28.790Z,99740.50
2023-03-06T03:26:33.431Z,99748.81
2023-03-06T03:29:45.054Z,99752.09
2023-03-06T03:32:47.780Z,99749.69
2023-03-06T03:35:57.538Z,99745.78
2023-03-06T03:39:01.309Z,99740.56
2023-03-06T03:42:04.316Z,99746.13
2023-03-06T03:45:08.817Z,99747.53
2023-03-06T03:48:11.866Z,99757.56
2023-03-06T03:51:16.844Z,99746.81
2023-03-06T03:54:23.969Z,99747.06
2023-03-06T03:57:28.894Z,99746.94
2023-03-06T04:00:32.685Z,99732.72
2023-03-06T04:03:45.833Z,99746.50
2023-03-06T04:06:50.646Z,99742.28
2023-03-06T04:09:54.425Z,99738.53
2023-03-06T04:12:57.632Z,99743.91
2023-03-06T04:16:01.870Z,99726.84
2023-03-06T04:19:06.987Z,99735.84
2023-03-06T04:22:10.073Z,99739.25
2023-03-06T04:25:15.152Z,99726.00
2023-03-06T04:28:18.071Z,99726.84
2023-03-06T04:31:21.398Z,99721.22
2023-03-06T04:34:24.492Z,99716.94
2023-03-06T04:37:27.773Z,99734.97
2023-03-06T04:40:33.423Z,99702.22
2023-03-06T04:43:40.048Z,99716.22
2023-03-06T04:46:42.620Z,99729.41
2023-03-06T04:49:46.562Z,99712.69
2023-03-06T04:52:49.061Z,99720.94
2023-03-06T04:55:51.912Z,99718.56
2023-03-06T04:58:54.646Z,99711.28
2023-03-06T05:39:24.028Z,99693.56
2023-03-06T05:42:28.737Z,99713.56
2023-03-06T05:45:31.274Z,99715.44
2023-03-06T05:48:35.222Z,99725.03
2023-03-06T05:51:37.702Z,99707.88
2023-03-06T05:54:40.957Z,99718.59
2023-03-06T05:57:43.440Z,99708.97
2023-03-06T06:00:46.233Z,99723.78
2023-03-06T06:03:48.803Z,99712.69
2023-03-06T06:06:53.429Z,99716.47
2023-03-06T06:09:55.921Z,99722.03
2023-03-06T06:12:58.887Z,99714.47
2023-03-06T06:16:10.177Z,99722.16
2023-03-06T06:19:19.032Z,99716.38
2023-03-06T06:22:21.541Z,99727.63
2023-03-06T06:25:24.236Z,99727.38
2023-03-06T06:28:28.431Z,99735.81
2023-03-06T06:31:31.720Z,99730.03
2023-03-06T06:34:34.983Z,99731.13
2023-03-06T06:37:37.808Z,99728.31
2023-03-06T06:40:40.194Z,99725.75
2023-03-06T06:43:43.024Z,99726.28
2023-03-06T06:50:13.277Z,99725.13
2023-03-06T06:53:15.756Z,99720.13
2023-03-06T06:56:18.540Z,99711.97
2023-03-06T06:59:23.910Z,99708.25
2023-03-06T07:02:26.787Z,99712.16
2023-03-06T07:05:29.270Z,99711.25
2023-03-06T07:08:32.027Z,99703.06
2023-03-06T07:11:34.770Z,99703.31
2023-03-06T07:14:37.674Z,99701.50
2023-03-06T07:17:40.065Z,99702.22
2023-03-06T07:20:42.840Z,99700.44
2023-03-06T07:23:45.544Z,99707.81
2023-03-06T07:26:48.943Z,99702.31
2023-03-06T07:29:51.798Z,99708.09
2023-03-06T07:32:56.122Z,99708.59
2023-03-06T07:35:58.838Z,99705.41
2023-03-06T07:39:01.802Z,99704.19
2023-03-06T07:42:04.669Z,99710.09
2023-03-06T07:45:09.330Z,99705.38
2023-03-06T07:48:12.027Z,99692.91
2023-03-06T07:51:20.552Z,99707.47
2023-03-06T07:54:23.161Z,99700.81
2023-03-06T07:57:26.319Z,99691.72
2023-03-06T08:05:03.909Z,99702.00
2023-03-06T08:08:12.831Z,99700.88
2023-03-06T08:11:17.793Z,99691.78
2023-03-06T08:14:20.267Z,99703.56
2023-03-06T08:17:23.185Z,99701.25
2023-03-06T08:20:26.195Z,99696.69
2023-03-06T08:23:30.502Z,99698.13
2023-03-06T08:26:34.663Z,99695.69
2023-03-06T08:29:37.421Z,99700.50
2023-03-06T08:32:39.997Z,99689.13
2023-03-06T08:35:42.914Z,99691.34
2023-03-06T08:38:45.510Z,99689.97
2023-03-06T08:41:48.361Z,99684.34
2023-03-06T08:44:50.877Z,99679.53
2023-03-06T08:47:53.625Z,99669.56
2023-03-06T08:50:56.354Z,99674.97
2023-03-06T08:53:59.541Z,99681.25
2023-03-06T08:57:02.319Z,99672.34
2023-03-06T09:00:09.345Z,99676.72
2023-03-06T09:03:11.907Z,99670.97
2023-03-06T09:06:14.843Z,99661.94
2023-03-06T09:09:17.436Z,99672.06
2023-03-06T09:12:20.351Z,99670.56
2023-03-06T09:15:23.888Z,99664.66
2023-03-06T09:18:26.708Z,99673.44
2023-03-06T09:21:29.326Z,99655.25
2023-03-06T09:24:32.122Z,99655.31
2023-03-06T09:27:34.646Z,99657.31
2023-03-06T09:30:37.656Z,99657.44
2023-03-06T09:33:40.178Z,99665.56
2023-03-06T09:36:55.956Z,99643.84
2023-03-06T09:39:59.350Z,99641.25
2023-03-06T09:43:02.177Z,99659.81
2023-03-06T09:46:20.752Z,99646.84
2023-03-06T09:49:57.730Z,99659.03
2023-03-06T09:53:21.792Z,99653.03
2023-03-06T09:56:32.130Z,99651.75
2023-03-06T09:59:34.535Z,99639.16
2023-03-06T10:02:51.051Z,99639.91
2023-03-06T10:06:04.750Z,99644.41
2023-03-06T10:09:18.467Z,99631.25
2023-03-06T10:12:25.838Z,99639.19
2023-03-06T10:15:33.911Z,99630.22
2023-03-06T10:18:39.289Z,99624.94
2023-03-06T10:21:59.249Z,99633.63
2023-03-06T10:25:29.646Z,99610.84
2023-03-06T10:28:47.681Z,99626.03
2023-03-06T10:32:10.333Z,99615.69
2023-03-06T10:36:12.506Z,99620.94
2023-03-06T11:32:28.477Z,99557.81
2023-03-06T11:51:59.070Z,99545.16
2023-03-06T12:23:14.466Z,99527.72
2023-03-06T13:35:40.264Z,99490.63
2023-03-06T13:38:53.226Z,99482.91
2023-03-06T13:42:00.172Z,99472.47
2023-03-06T13:51:22.280Z,99476.59
2023-03-06T14:00:32.784Z,99469.09
2023-03-06T14:04:20.462Z,99467.41
2023-03-06T14:07:43.738Z,99472.81
2023-03-06T14:10:48.730Z,99468.97
2023-03-06T14:13:54.505Z,99457.72
2023-03-06T14:16:59.158Z,99460.34
2023-03-06T14:20:13.166Z,99466.41
2023-03-06T14:23:22.467Z,99470.31
2023-03-06T14:26:29.508Z,99461.75
2023-03-06T14:29:33.617Z,99447.72
2023-03-06T14:32:38.700Z,99459.25
2023-03-06T14:35:42.099Z,99437.19
2023-03-06T14:38:56.277Z,99449.75
2023-03-06T14:42:27.254Z,99446.22
2023-03-06T14:45:30.299Z,99427.75
2023-03-06T14:48:41.254Z,99435.78
2023-03-06T14:51:55.478Z,99427.00
2023-03-06T14:54:58.144Z,99448.00
2023-03-06T14:58:11.207Z,99443.19
2023-03-06T15:01:34.718Z,99452.91
2023-03-06T15:09:45.950Z,99444.31
2023-03-06T15:12:48.834Z,99439.69
2023-03-06T15:16:20.204Z,99451.28
2023-03-06T15:20:38.670Z,99441.69
2023-03-06T15:23:48.732Z,99424.94
2023-03-06T15:27:55.004Z,99415.47
2023-03-06T15:31:20.890Z,99424.44
2023-03-06T15:34:24.647Z,99423.34
2023-03-06T15:37:29.325Z,99435.91
2023-03-06T15:40:33.306Z,99428.09
2023-03-06T15:43:40.428Z,99426.34
2023-03-06T15:46:44.432Z,99433.16
2023-03-06T15:49:52.150Z,99426.31
2023-03-06T15:52:55.644Z,99424.44
2023-03-06T15:55:59.962Z,99435.88
2023-03-06T15:59:02.964Z,99429.50
2023-03-06T16:02:18.091Z,99439.22
2023-03-06T16:05:21.947Z,99446.28
2023-03-06T16:08:25.530Z,99437.59
2023-03-06T16:11:38.646Z,99437.38
2023-03-06T16:14:50.555Z,99439.09
2023-03-06T16:17:54.231Z,99429.38
2023-03-06T16:30:33.896Z,99426.03
2023-03-06T16:33:39.209Z,99428.59
2023-03-06T16:36:42.945Z,99431.19
2023-03-06T16:39:47.824Z,99420.78
2023-03-06T16:42:55.123Z,99426.91
2023-03-06T16:46:02.454Z,99427.78
2023-03-06T16:49:05.919Z,99416.66
2023-03-06T16:52:10.677Z,99446.78
2023-03-06T16:55:14.546Z,99432.88
2023-03-06T16:58:18.012Z,99420.50
2023-03-06T17:01:23.956Z,99422.34
2023-03-06T17:04:27.035Z,99421.47
2023-03-06T17:07:30.329Z,99421.56
2023-03-06T17:10:33.479Z,99437.38
2023-03-06T17:13:37.033Z,99427.75
2023-03-06T17:16:41.098Z,99428.66
2023-03-06T17:19:47.943Z,99441.69
2023-03-06T17:22:50.727Z,99446.97
2023-03-06T17:26:13.905Z,99435.66
2023-03-06T17:29:17.400Z,99430.38
2023-03-06T17:32:22.437Z,99427.81
2023-03-06T17:35:25.064Z,99442.78
2023-03-06T17:38:29.406Z,99431.38
2023-03-06T17:41:34.550Z,99444.41
2023-03-06T17:44:40.107Z,99436.59
2023-03-06T17:47:55.654Z,99434.81
2023-03-06T17:51:00.800Z,99437.44
2023-03-06T17:54:04.256Z,99431.03
2023-03-06T17:57:08.562Z,99442.44
2023-03-06T18:00:12.762Z,99430.97
2023-03-06T18:03:16.807Z,99425.84
2023-03-06T18:06:23.666Z,99436.25
2023-03-06T18:09:31.537Z,99421.06
2023-03-06T18:12:36.298Z,99416.03
2023-03-06T18:15:42.036Z,99424.03
2023-03-06T18:18:46.134Z,99433.75
2023-03-06T18:21:53.139Z,99433.75
2023-03-06T18:24:58.615Z,99415.31
2023-03-06T18:28:03.165Z,99409.03
2023-03-06T18:31:09.715Z,99436.38
2023-03-06T18:34:18.526Z,99418.69
2023-03-06T18:37:22.701Z,99428.41
2023-03-06T18:40:26.860Z,99429.66
2023-03-06T18:43:30.346Z,99407.78
2023-03-06T18:46:41.862Z,99425.53
2023-03-06T18:49:46.730Z,99421.78
2023-03-06T18:52:52.923Z,99398.88
2023-03-06T18:55:56.609Z,99414.63
2023-03-06T18:59:05.554Z,99418.06
2023-03-06T19:02:11.612Z,99413.84
2023-03-06T19:05:16.150Z,99413.75
2023-03-06T19:08:20.458Z,99413.91
2023-03-06T19:11:27.562Z,99396.31
2023-03-06T19:14:32.191Z,99403.31
2023-03-06T19:17:38.466Z,99408.59
2023-03-06T19:20:52.727Z,99410.38
2023-03-06T19:23:58.988Z,99399.63
2023-03-06T19:27:04.232Z,99408.53
2023-03-06T19:30:09.082Z,99405.09
2023-03-06T19:33:15.961Z,99392.94
2023-03-06T19:36:24.386Z,99404.34
2023-03-06T19:39:29.633Z,99407.00
2023-03-06T19:42:33.796Z,99407.78
2023-03-06T19:45:43.415Z,99404.38
2023-03-06T19:48:48.191Z,99402.38
2023-03-06T19:51:53.973Z,99405.97
2023-03-06T19:54:59.724Z,99404.97
2023-03-06T19:58:04.378Z,99402.56
2023-03-06T20:01:12.348Z,99407.66
2023-03-06T20:04:17.856Z,99408.34
2023-03-06T20:07:22.878Z,99405.78
2023-03-06T20:10:27.302Z,99415.31
2023-03-06T20:13:31.656Z,99403.97
2023-03-06T20:16:36.285Z,99416.19
2023-03-06T20:19:40.160Z,99414.50
2023-03-06T20:22:44.603Z,99411.97
2023-03-06T20:25:48.557Z,99412.09
2023-03-06T20:28:53.045Z,99411.31
2023-03-06T20:31:59.785Z,99393.91
2023-03-06T20:35:08.163Z,99399.13
2023-03-06T20:38:13.571Z,99409.66
2023-03-06T20:41:28.661Z,99413.09
2023-03-06T20:44:32.805Z,99393.81
2023-03-06T20:47:39.262Z,99407.91
2023-03-06T20:50:48.501Z,99405.19
2023-03-06T20:53:54.070Z,99409.59
2023-03-06T20:56:58.848Z,99415.88
2023-03-06T21:00:02.465Z,99408.78
2023-03-06T21:03:06.444Z,99418.63
2023-03-06T21:06:10.083Z,99406.09
2023-03-06T21:09:15.867Z,99412.09
2023-03-06T21:12:19.998Z,99419.00
2023-03-06T21:15:27.694Z,99412.16
2023-03-06T21:18:30.668Z,99412.97
2023-03-06T21:21:36.172Z,99414.72
2023-03-06T21:24:38.831Z,99413.84
2023-03-06T21:27:41.906Z,99406.72
2023-03-06T21:30:46.207Z,99415.44
2023-03-06T21:33:50.439Z,99418.78
2023-03-06T21:36:53.363Z,99412.84
2023-03-06T21:40:00.116Z,99406.72
2023-03-06T21:43:03.770Z,99408.53
2023-03-06T21:46:07.898Z,99419.81
2023-03-06T21:49:10.631Z,99406.66
2023-03-06T21:52:13.497Z,99418.00
2023-03-06T21:55:16.503Z,99425.78
2023-03-06T21:58:20.043Z,99426.66
2023-03-06T23:21:45.899Z,99475.66
